Time;durP1;ratioP1;P1;durP2;ratioP2;P2;SDS_P1;SDS_P2;PMS_P1;PMS_P2;Temp;Humidity;BMP_temperature;BMP_pressure;BME280_temperature;BME280_humidity;BME280_pressure;Samples;Min_cycle;Max_cycle;Signal;HPM_P1;HPM_P2
2023/08/27 00:03:15;;;;;;;;;;;;;;;13.98;100;100984.6;;;;-78
2023/08/27 00:07:34;;;;;;;23;14.4;;;;;;;;;;;;;-79
2023/08/27 00:08:17;;;;;;;;;;;;;;;13.99;100;100989.3;;;;-78
2023/08/27 00:13:16;;;;;;;;;;;;;;;14.03;100;100989.7;;;;-78
2023/08/27 00:18:15;;;;;;;;;;;;;;;14.02;100;100980.9;;;;-79
2023/08/27 00:23:16;;;;;;;;;;;;;;;14.08;100;100983.5;;;;-78
2023/08/27 00:28:16;;;;;;;;;;;;;;;14.15;100;100978.9;;;;-78
2023/08/27 00:33:15;;;;;;;;;;;;;;;14.2;100;100979.6;;;;-78
2023/08/27 00:37:37;;;;;;;22.9;13.4;;;;;;;;;;;;;-79
2023/08/27 00:38:15;;;;;;;;;;;;;;;14.24;100;100973.5;;;;-79
2023/08/27 00:43:15;;;;;;;;;;;;;;;14.28;100;100968.1;;;;-78
2023/08/27 00:48:16;;;;;;;;;;;;;;;14.32;100;100960.4;;;;-79
2023/08/27 00:53:16;;;;;;;;;;;;;;;14.33;100;100948.5;;;;-79
2023/08/27 00:58:15;;;;;;;;;;;;;;;14.4;100;100952.2;;;;-78
2023/08/27 01:03:15;;;;;;;;;;;;;;;14.43;100;100947.5;;;;-79
2023/08/27 01:07:43;;;;;;;16.7;10.2;;;;;;;;;;;;;-80
2023/08/27 01:08:20;;;;;;;;;;;;;;;14.42;100;100944.9;;;;-78
2023/08/27 01:13:18;;;;;;;;;;;;;;;14.4;100;100934;;;;-79
2023/08/27 01:18:17;;;;;;;;;;;;;;;14.33;100;100916.9;;;;-78
2023/08/27 01:23:15;;;;;;;;;;;;;;;14.28;100;100904.7;;;;-79
2023/08/27 01:28:18;;;;;;;;;;;;;;;14.28;100;100906.1;;;;-77
2023/08/27 01:33:19;;;;;;;;;;;;;;;14.29;100;100907.7;;;;-80
2023/08/27 01:37:41;;;;;;;19.8;9.8;;;;;;;;;;;;;-78
2023/08/27 01:38:16;;;;;;;;;;;;;;;14.3;100;100911.8;;;;-80
2023/08/27 01:43:15;;;;;;;;;;;;;;;14.27;100;100924.8;;;;-79
2023/08/27 01:48:15;;;;;;;;;;;;;;;14.25;100;100914.2;;;;-79
2023/08/27 01:53:15;;;;;;;;;;;;;;;14.18;100;100904.4;;;;-79
2023/08/27 01:58:15;;;;;;;;;;;;;;;14.06;100;100898.4;;;;-79
2023/08/27 02:03:15;;;;;;;;;;;;;;;14.11;100;100905.6;;;;-78
2023/08/27 02:07:44;;;;;;;17;8.6;;;;;;;;;;;;;-78
2023/08/27 02:08:15;;;;;;;;;;;;;;;14.14;100;100907.2;;;;-80
2023/08/27 02:13:16;;;;;;;;;;;;;;;14.17;100;100903.3;;;;-79
2023/08/27 02:18:15;;;;;;;;;;;;;;;14.18;100;100905.9;;;;-78
2023/08/27 02:23:15;;;;;;;;;;;;;;;14.17;100;100903.8;;;;-77
2023/08/27 02:28:15;;;;;;;;;;;;;;;14.16;100;100897.3;;;;-78
2023/08/27 02:33:15;;;;;;;;;;;;;;;14.16;100;100903;;;;-79
2023/08/27 02:37:46;;;;;;;13.5;8.1;;;;;;;;;;;;;-77
2023/08/27 02:38:15;;;;;;;;;;;;;;;14.16;100;100906.2;;;;-78
2023/08/27 02:43:16;;;;;;;;;;;;;;;14.18;100;100901.4;;;;-79
2023/08/27 02:48:16;;;;;;;;;;;;;;;14.27;100;100899.1;;;;-78
2023/08/27 02:53:15;;;;;;;;;;;;;;;14.32;100;100885.2;;;;-79
2023/08/27 02:58:15;;;;;;;;;;;;;;;14.39;100;100897.8;;;;-80
2023/08/27 03:03:15;;;;;;;;;;;;;;;14.46;100;100893.6;;;;-79
2023/08/27 03:07:48;;;;;;;20.6;11;;;;;;;;;;;;;-77
2023/08/27 03:08:16;;;;;;;;;;;;;;;14.53;100;100891.3;;;;-78
2023/08/27 03:13:15;;;;;;;;;;;;;;;14.52;100;100892.7;;;;-79
2023/08/27 03:18:15;;;;;;;;;;;;;;;14.53;100;100894.6;;;;-79
2023/08/27 03:23:16;;;;;;;;;;;;;;;14.52;100;100897;;;;-79
2023/08/27 03:28:15;;;;;;;;;;;;;;;14.48;100;100890.2;;;;-79
2023/08/27 03:33:15;;;;;;;;;;;;;;;14.5;100;100907.4;;;;-80
2023/08/27 03:37:50;;;;;;;12.3;5.8;;;;;;;;;;;;;-78
2023/08/27 03:38:15;;;;;;;;;;;;;;;14.32;100;100917;;;;-78
2023/08/27 03:43:15;;;;;;;;;;;;;;;13.97;100;100910.4;;;;-78
2023/08/27 03:48:15;;;;;;;;;;;;;;;13.67;100;100901.4;;;;-78
2023/08/27 03:53:15;;;;;;;;;;;;;;;13.51;100;100907.1;;;;-78
2023/08/27 03:58:15;;;;;;;;;;;;;;;13.4;100;100905;;;;-78
2023/08/27 04:03:16;;;;;;;;;;;;;;;13.25;100;100919.3;;;;-80
2023/08/27 04:07:52;;;;;;;6.9;1.6;;;;;;;;;;;;;-77
2023/08/27 04:08:15;;;;;;;;;;;;;;;13.11;100;100920.8;;;;-78
2023/08/27 04:13:15;;;;;;;;;;;;;;;13;100;100913.4;;;;-78
2023/08/27 04:18:15;;;;;;;;;;;;;;;12.9;100;100919.2;;;;-78
2023/08/27 04:23:15;;;;;;;;;;;;;;;12.76;100;100921.9;;;;-78
2023/08/27 04:28:15;;;;;;;;;;;;;;;12.66;100;100927.8;;;;-80
2023/08/27 04:33:15;;;;;;;;;;;;;;;12.61;100;100902;;;;-79
2023/08/27 04:37:54;;;;;;;7.7;1.2;;;;;;;;;;;;;-79
2023/08/27 04:38:15;;;;;;;;;;;;;;;12.56;100;100876.4;;;;-80
2023/08/27 04:43:16;;;;;;;;;;;;;;;12.52;100;100861.3;;;;-79
2023/08/27 04:48:15;;;;;;;;;;;;;;;12.51;100;100839.7;;;;-79
2023/08/27 04:53:16;;;;;;;;;;;;;;;12.49;100;100849.1;;;;-80
2023/08/27 04:58:15;;;;;;;;;;;;;;;12.44;100;100846.2;;;;-77
2023/08/27 05:03:15;;;;;;;;;;;;;;;12.43;100;100847.6;;;;-79
2023/08/27 05:07:58;;;;;;;5;1.5;;;;;;;;;;;;;-79
2023/08/27 05:08:15;;;;;;;;;;;;;;;12.4;100;100847.5;;;;-78
2023/08/27 05:13:16;;;;;;;;;;;;;;;12.35;100;100858.4;;;;-78
2023/08/27 05:18:15;;;;;;;;;;;;;;;12.31;100;100853.9;;;;-79
2023/08/27 05:23:17;;;;;;;;;;;;;;;12.27;100;100861.4;;;;-78
2023/08/27 05:28:15;;;;;;;;;;;;;;;12.22;100;100855.3;;;;-78
2023/08/27 05:33:16;;;;;;;;;;;;;;;12.24;100;100859.1;;;;-78
2023/08/27 05:37:59;;;;;;;3;1.2;;;;;;;;;;;;;-77
2023/08/27 05:38:15;;;;;;;;;;;;;;;12.28;100;100864.4;;;;-78
2023/08/27 05:43:15;;;;;;;;;;;;;;;12.38;100;100868.1;;;;-78
2023/08/27 05:48:15;;;;;;;;;;;;;;;12.48;100;100869.5;;;;-80
2023/08/27 05:53:15;;;;;;;;;;;;;;;12.58;100;100881.9;;;;-79
2023/08/27 05:58:15;;;;;;;;;;;;;;;12.6;100;100880.9;;;;-76
2023/08/27 06:03:15;;;;;;;;;;;;;;;12.65;100;100877.7;;;;-78
2023/08/27 06:08:02;;;;;;;2.7;0.8;;;;;;;;;;;;;-79
2023/08/27 06:08:15;;;;;;;;;;;;;;;12.69;100;100880.7;;;;-77
2023/08/27 06:13:15;;;;;;;;;;;;;;;12.68;100;100880.9;;;;-78
2023/08/27 06:18:15;;;;;;;;;;;;;;;12.7;100;100873.5;;;;-80
2023/08/27 06:23:16;;;;;;;;;;;;;;;12.69;100;100870.4;;;;-78
2023/08/27 06:28:15;;;;;;;;;;;;;;;12.63;100;100873.2;;;;-78
2023/08/27 06:33:15;;;;;;;;;;;;;;;13.12;100;100876.5;;;;-79
2023/08/27 06:38:01;;;;;;;2;0.8;;;;;;;;;;;;;-79
2023/08/27 06:38:15;;;;;;;;;;;;;;;13.25;100;100874.8;;;;-80
2023/08/27 06:43:15;;;;;;;;;;;;;;;13.98;100;100887.4;;;;-80
2023/08/27 06:48:15;;;;;;;;;;;;;;;14.6;100;100875;;;;-78
2023/08/27 06:53:15;;;;;;;;;;;;;;;15.12;99.42773;100870.7;;;;-79
2023/08/27 06:58:15;;;;;;;;;;;;;;;15.89;98.48535;100871.9;;;;-78
2023/08/27 07:03:16;;;;;;;;;;;;;;;15.28;98.29688;100872.3;;;;-79
2023/08/27 07:08:04;;;;;;;3.4;1;;;;;;;;;;;;;-79
2023/08/27 07:08:15;;;;;;;;;;;;;;;15.03;100;100877;;;;-80
2023/08/27 07:13:15;;;;;;;;;;;;;;;15.08;98.06152;100873.6;;;;-79
2023/08/27 07:18:15;;;;;;;;;;;;;;;15.62;94.26074;100867.9;;;;-78
2023/08/27 07:23:15;;;;;;;;;;;;;;;15.85;94.14355;100861;;;;-79
2023/08/27 07:28:16;;;;;;;;;;;;;;;16.03;91.22363;100851.7;;;;-78
2023/08/27 07:33:15;;;;;;;;;;;;;;;16.22;88.93652;100841.9;;;;-79
2023/08/27 07:38:06;;;;;;;8.5;3.2;;;;;;;;;;;;;-77
2023/08/27 07:38:17;;;;;;;;;;;;;;;16.31;90.59668;100803;;;;-79
2023/08/27 07:43:18;;;;;;;;;;;;;;;16.57;92.72852;100818.3;;;;-78
2023/08/27 07:48:15;;;;;;;;;;;;;;;16.67;90.72656;100813.5;;;;-79
2023/08/27 07:53:15;;;;;;;;;;;;;;;16.82;90.68945;100808.5;;;;-79
2023/08/27 07:58:15;;;;;;;;;;;;;;;16.92;89.69336;100804.4;;;;-78
2023/08/27 08:03:15;;;;;;;;;;;;;;;17.09;87.88867;100797.7;;;;-80
2023/08/27 08:08:09;;;;;;;6.4;2.8;;;;;;;;;;;;;-78
2023/08/27 08:08:18;;;;;;;;;;;;;;;16.91;85.51074;100773.3;;;;-77
2023/08/27 08:13:15;;;;;;;;;;;;;;;17.25;83.20996;100801.2;;;;-80
2023/08/27 08:18:16;;;;;;;;;;;;;;;17.54;83.15039;100807;;;;-79
2023/08/27 08:23:15;;;;;;;;;;;;;;;17.69;78.05078;100823.1;;;;-79
2023/08/27 08:28:16;;;;;;;;;;;;;;;18.03;76.68066;100830.8;;;;-80
2023/08/27 08:33:15;;;;;;;;;;;;;;;18.28;76.64453;100843;;;;-78
2023/08/27 08:38:12;;;;;;;3.5;1.8;;;;;;;;;;;;;-79
2023/08/27 08:38:22;;;;;;;;;;;;;;;18.4;76.74414;100836.7;;;;-77
2023/08/27 08:43:21;;;;;;;;;;;;;;;18.65;73.26367;100846.2;;;;-80
2023/08/27 08:48:16;;;;;;;;;;;;;;;18.63;74.46973;100854.1;;;;-79
2023/08/27 08:53:19;;;;;;;;;;;;;;;18.27;73.6543;100851.2;;;;-80
2023/08/27 08:58:16;;;;;;;;;;;;;;;18.21;73.87012;100852.4;;;;-80
2023/08/27 09:03:15;;;;;;;;;;;;;;;18.64;75.25098;100849.3;;;;-79
2023/08/27 09:08:16;;;;;;;4.7;1.2;;;;;;;;;;;;;-78
2023/08/27 09:08:26;;;;;;;;;;;;;;;18.45;72.56641;100837.9;;;;-77
2023/08/27 09:13:15;;;;;;;;;;;;;;;18.45;75.07227;100837.9;;;;-79
2023/08/27 09:18:15;;;;;;;;;;;;;;;18.22;70.91504;100829.2;;;;-79
2023/08/27 09:23:15;;;;;;;;;;;;;;;18.14;69.16113;100837.6;;;;-80
2023/08/27 09:28:15;;;;;;;;;;;;;;;18.47;70.37598;100844.9;;;;-80
2023/08/27 09:33:15;;;;;;;;;;;;;;;18.45;63.07813;100846.9;;;;-79
2023/08/27 09:38:19;;;;;;;;;;;;;;;18.5;61.56836;100841.9;;;;-79
2023/08/27 09:38:30;;;;;;;2.6;1.2;;;;;;;;;;;;;-79
2023/08/27 09:43:17;;;;;;;;;;;;;;;18.96;59.4873;100831.2;;;;-80
2023/08/27 09:48:27;;;;;;;;;;;;;;;19.24;59.07031;100821.5;;;;-80
2023/08/27 09:53:15;;;;;;;;;;;;;;;19.65;56.86035;100823.6;;;;-79
2023/08/27 09:58:15;;;;;;;;;;;;;;;19.8;58.33691;100823.9;;;;-80
2023/08/27 10:03:15;;;;;;;;;;;;;;;19.93;56.61328;100818.4;;;;-80
2023/08/27 10:08:16;;;;;;;;;;;;;;;20.28;56.90723;100824.5;;;;-79
2023/08/27 10:08:26;;;;;;;2.2;0.6;;;;;;;;;;;;;-79
2023/08/27 10:13:17;;;;;;;;;;;;;;;19.87;57.76563;100830.4;;;;-80
2023/08/27 10:18:17;;;;;;;;;;;;;;;19.58;59.02344;100819.2;;;;-79
2023/08/27 10:23:19;;;;;;;;;;;;;;;19.55;61.47363;100827.2;;;;-80
2023/08/27 10:28:16;;;;;;;;;;;;;;;19.62;62.17676;100819.3;;;;-79
2023/08/27 10:33:15;;;;;;;;;;;;;;;19.55;65.82129;100822.9;;;;-80
2023/08/27 10:38:17;;;;;;;;;;;;;;;18.72;63.17383;100836.2;;;;-78
2023/08/27 10:38:28;;;;;;;6.9;1;;;;;;;;;;;;;-78
2023/08/27 10:43:20;;;;;;;;;;;;;;;18.38;59.82813;100856.5;;;;-79
2023/08/27 10:48:26;;;;;;;;;;;;;;;17.26;75.05078;100859.8;;;;-78
2023/08/27 10:53:15;;;;;;;;;;;;;;;16.72;77.99219;100857.4;;;;-79
2023/08/27 10:58:24;;;;;;;;;;;;;;;16.86;81.7793;100850.1;;;;-79
2023/08/27 11:03:20;;;;;;;;;;;;;;;17.26;80.65039;100843.2;;;;-81
2023/08/27 11:08:19;;;;;;;;;;;;;;;18.02;80.14844;100829.7;;;;-79
2023/08/27 11:08:36;;;;;;;6.5;1.3;;;;;;;;;;;;;-79
2023/08/27 11:13:29;;;;;;;;;;;;;;;18.36;77.9873;100835.3;;;;-79
2023/08/27 11:18:30;;;;;;;;;;;;;;;18.78;75.71484;100832.2;;;;-78
2023/08/27 11:23:15;;;;;;;;;;;;;;;18.51;74.17969;100837.1;;;;-79
2023/08/27 11:28:16;;;;;;;;;;;;;;;18.63;78.80176;100830;;;;-79
2023/08/27 11:33:21;;;;;;;;;;;;;;;18.46;75.09473;100840.5;;;;-78
2023/08/27 11:38:16;;;;;;;;;;;;;;;18.26;66.02539;100850.4;;;;-79
2023/08/27 11:38:31;;;;;;;3.6;0.7;;;;;;;;;;;;;-78
2023/08/27 11:43:15;;;;;;;;;;;;;;;18.31;69.26855;100853.5;;;;-78
2023/08/27 11:48:15;;;;;;;;;;;;;;;18.33;71.64258;100852.3;;;;-79
2023/08/27 11:53:15;;;;;;;;;;;;;;;18.28;75.16699;100857;;;;-80
2023/08/27 11:58:15;;;;;;;;;;;;;;;18.26;77.60938;100861;;;;-78
2023/08/27 12:03:15;;;;;;;;;;;;;;;18.24;78.30566;100863.6;;;;-79
2023/08/27 12:08:17;;;;;;;;;;;;;;;18.33;77.53125;100862.9;;;;-78
2023/08/27 12:08:37;;;;;;;7.9;1.3;;;;;;;;;;;;;-77
2023/08/27 12:13:16;;;;;;;;;;;;;;;18.52;71.5957;100869.4;;;;-79
2023/08/27 12:18:15;;;;;;;;;;;;;;;18.91;68.41016;100860.7;;;;-79
2023/08/27 12:23:20;;;;;;;;;;;;;;;19.14;63.12012;100861.1;;;;-81
2023/08/27 12:28:16;;;;;;;;;;;;;;;19.61;62.87793;100853.6;;;;-79
2023/08/27 12:33:15;;;;;;;;;;;;;;;19.63;64.09668;100860.3;;;;-80
2023/08/27 12:38:16;;;;;;;;;;;;;;;19.84;63.77441;100855;;;;-79
2023/08/27 12:38:38;;;;;;;6.8;1.2;;;;;;;;;;;;;-79
2023/08/27 12:43:15;;;;;;;;;;;;;;;19.63;65.93652;100860;;;;-78
2023/08/27 12:48:15;;;;;;;;;;;;;;;19.16;66.43262;100859.7;;;;-78
2023/08/27 12:53:15;;;;;;;;;;;;;;;19.15;66.87305;100863.4;;;;-80
2023/08/27 12:58:15;;;;;;;;;;;;;;;19.11;69.01855;100861.1;;;;-79
2023/08/27 13:03:15;;;;;;;;;;;;;;;18.96;69.96875;100864.6;;;;-78
2023/08/27 13:08:15;;;;;;;;;;;;;;;19.72;68.75;100854.7;;;;-79
2023/08/27 13:08:41;;;;;;;4.8;2.4;;;;;;;;;;;;;-79
2023/08/27 13:13:15;;;;;;;;;;;;;;;19.57;68.63574;100888.5;;;;-77
2023/08/27 13:18:19;;;;;;;;;;;;;;;17.92;77.77539;100895.6;;;;-79
2023/08/27 13:23:15;;;;;;;;;;;;;;;16.92;85.42285;100877.7;;;;-78
2023/08/27 13:28:15;;;;;;;;;;;;;;;16.45;90.35742;100878;;;;-79
2023/08/27 13:33:15;;;;;;;;;;;;;;;16.36;91.44629;100883.1;;;;-79
2023/08/27 13:38:15;;;;;;;;;;;;;;;16.87;92.94727;100883.3;;;;-78
2023/08/27 13:38:44;;;;;;;5.9;2.3;;;;;;;;;;;;;-78
2023/08/27 13:43:15;;;;;;;;;;;;;;;17.23;85.87695;100873.5;;;;-79
2023/08/27 13:48:15;;;;;;;;;;;;;;;17.75;87.76172;100883.8;;;;-78
2023/08/27 13:53:15;;;;;;;;;;;;;;;17.79;82.35449;100897;;;;-78
2023/08/27 13:58:15;;;;;;;;;;;;;;;17.47;75.88574;100902.7;;;;-79
2023/08/27 14:03:15;;;;;;;;;;;;;;;17.21;76.34668;100896.4;;;;-78
2023/08/27 14:08:15;;;;;;;;;;;;;;;17.58;75.27441;100905.4;;;;-79
2023/08/27 14:08:48;;;;;;;2.1;0.7;;;;;;;;;;;;;-79
2023/08/27 14:13:15;;;;;;;;;;;;;;;18.05;72.45605;100903.4;;;;-80
2023/08/27 14:18:15;;;;;;;;;;;;;;;18.52;66.08887;100911.2;;;;-79
2023/08/27 14:23:15;;;;;;;;;;;;;;;18.98;67.44727;100910.5;;;;-79
2023/08/27 14:28:16;;;;;;;;;;;;;;;19.34;67.94336;100909.6;;;;-80
2023/08/27 14:33:15;;;;;;;;;;;;;;;19.58;67.18555;100913.2;;;;-79
2023/08/27 14:38:15;;;;;;;;;;;;;;;19.25;67.0459;100919.8;;;;-79
2023/08/27 14:38:50;;;;;;;2.4;0.8;;;;;;;;;;;;;-78
2023/08/27 14:43:15;;;;;;;;;;;;;;;18.78;69.6123;100922.1;;;;-81
2023/08/27 14:48:15;;;;;;;;;;;;;;;18.19;70.29785;100929;;;;-80
2023/08/27 14:53:15;;;;;;;;;;;;;;;17.89;71.12012;100931.4;;;;-79
2023/08/27 14:58:15;;;;;;;;;;;;;;;17.42;75.93262;100949.4;;;;-78
2023/08/27 15:03:15;;;;;;;;;;;;;;;16.37;79.83691;100956;;;;-79
2023/08/27 15:08:15;;;;;;;;;;;;;;;15.89;88.34375;100960.6;;;;-79
2023/08/27 15:08:53;;;;;;;4.4;1.2;;;;;;;;;;;;;-78
2023/08/27 15:13:15;;;;;;;;;;;;;;;15.52;92.5;100961.8;;;;-79
2023/08/27 15:18:15;;;;;;;;;;;;;;;15.43;96.68164;100955;;;;-79
2023/08/27 15:23:15;;;;;;;;;;;;;;;15.28;95.09082;100954.1;;;;-78
2023/08/27 15:28:15;;;;;;;;;;;;;;;15.39;97.03906;100958.8;;;;-78
2023/08/27 15:33:15;;;;;;;;;;;;;;;15.43;99.00586;100956.2;;;;-78
2023/08/27 15:38:17;;;;;;;;;;;;;;;15.66;100;100946.8;;;;-79
2023/08/27 15:38:56;;;;;;;4.9;1.8;;;;;;;;;;;;;-80
2023/08/27 15:43:26;;;;;;;;;;;;;;;16.14;95.98828;100945.3;;;;-77
2023/08/27 15:48:15;;;;;;;;;;;;;;;16.68;94.47559;100941.1;;;;-80
2023/08/27 15:53:15;;;;;;;;;;;;;;;16.81;91.37012;100947.4;;;;-78
2023/08/27 15:58:15;;;;;;;;;;;;;;;16.9;90.6748;100944.8;;;;-78
2023/08/27 16:03:15;;;;;;;;;;;;;;;16.75;88.02344;100942.4;;;;-78
2023/08/27 16:08:15;;;;;;;;;;;;;;;16.69;87.04785;100960.3;;;;-79
2023/08/27 16:08:58;;;;;;;6.4;1.4;;;;;;;;;;;;;-80
2023/08/27 16:13:15;;;;;;;;;;;;;;;16.78;87.98438;100961;;;;-79
2023/08/27 16:18:15;;;;;;;;;;;;;;;16.52;86.10742;100971.2;;;;-80
2023/08/27 16:23:15;;;;;;;;;;;;;;;16.38;84.49121;100970.8;;;;-79
2023/08/27 16:28:18;;;;;;;;;;;;;;;16.33;87.09082;100966.7;;;;-77
2023/08/27 16:33:15;;;;;;;;;;;;;;;16.65;86.87305;100973.5;;;;-77
2023/08/27 16:38:15;;;;;;;;;;;;;;;16.72;84.97168;100972.1;;;;-78
2023/08/27 16:39:01;;;;;;;6.8;1.2;;;;;;;;;;;;;-80
2023/08/27 16:43:15;;;;;;;;;;;;;;;16.76;86.58105;100967.2;;;;-78
2023/08/27 16:48:15;;;;;;;;;;;;;;;16.81;85.92871;100969.9;;;;-80
2023/08/27 16:53:16;;;;;;;;;;;;;;;16.91;86.55273;100966.9;;;;-80
2023/08/27 16:58:15;;;;;;;;;;;;;;;17.06;86.1123;100972.1;;;;-79
2023/08/27 17:03:17;;;;;;;;;;;;;;;17.26;85.56836;100980.4;;;;-80
2023/08/27 17:08:15;;;;;;;;;;;;;;;17.33;83.58398;100984.6;;;;-79
2023/08/27 17:09:05;;;;;;;8.6;1.3;;;;;;;;;;;;;-79
2023/08/27 17:13:15;;;;;;;;;;;;;;;17.35;82.72363;100985.5;;;;-78
2023/08/27 17:18:15;;;;;;;;;;;;;;;17.32;79.10938;100991.1;;;;-79
2023/08/27 17:23:15;;;;;;;;;;;;;;;17.12;76.76074;100994.4;;;;-79
2023/08/27 17:28:15;;;;;;;;;;;;;;;17.04;79.16016;100989.8;;;;-79
2023/08/27 17:33:15;;;;;;;;;;;;;;;16.93;80.28809;101002.8;;;;-80
2023/08/27 17:38:15;;;;;;;;;;;;;;;16.91;81.46191;100999.1;;;;-77
2023/08/27 17:39:08;;;;;;;7.1;1.7;;;;;;;;;;;;;-80
2023/08/27 17:43:15;;;;;;;;;;;;;;;16.82;81.82813;100997.7;;;;-79
2023/08/27 17:48:15;;;;;;;;;;;;;;;16.57;83.28516;101008.6;;;;-80
2023/08/27 17:53:15;;;;;;;;;;;;;;;16.4;84.25;101020.1;;;;-78
2023/08/27 17:58:15;;;;;;;;;;;;;;;16.3;85.08008;101031.4;;;;-78
2023/08/27 18:03:16;;;;;;;;;;;;;;;16.03;87.09863;101036.8;;;;-78
2023/08/27 18:08:15;;;;;;;;;;;;;;;15.8;89.38672;101033;;;;-79
2023/08/27 18:09:11;;;;;;;4.9;1.3;;;;;;;;;;;;;-79
2023/08/27 18:13:15;;;;;;;;;;;;;;;15.67;90.42188;101035.1;;;;-79
2023/08/27 18:18:17;;;;;;;;;;;;;;;15.49;92.00391;101038.5;;;;-79
2023/08/27 18:23:16;;;;;;;;;;;;;;;15.35;93.42285;101047.1;;;;-78
2023/08/27 18:28:15;;;;;;;;;;;;;;;15.22;94.54297;101047.9;;;;-79
2023/08/27 18:33:15;;;;;;;;;;;;;;;15.11;95.83105;101054.2;;;;-78
2023/08/27 18:38:15;;;;;;;;;;;;;;;14.87;97.43848;101057.6;;;;-78
2023/08/27 18:39:13;;;;;;;6.5;1.8;;;;;;;;;;;;;-78
2023/08/27 18:43:15;;;;;;;;;;;;;;;14.64;98.94238;101048;;;;-80
2023/08/27 18:48:15;;;;;;;;;;;;;;;14.61;98.8252;101066.8;;;;-78
2023/08/27 18:53:16;;;;;;;;;;;;;;;14.56;96.49121;101068.2;;;;-79
2023/08/27 18:58:15;;;;;;;;;;;;;;;14.46;96.06055;101065.4;;;;-79
2023/08/27 19:03:15;;;;;;;;;;;;;;;14.36;95.3252;101074.5;;;;-79
2023/08/27 19:08:16;;;;;;;;;;;;;;;14.34;94.08789;101078.4;;;;-77
2023/08/27 19:09:16;;;;;;;5.8;1.9;;;;;;;;;;;;;-78
2023/08/27 19:13:15;;;;;;;;;;;;;;;14.25;93.14648;101089.7;;;;-78
2023/08/27 19:18:15;;;;;;;;;;;;;;;14.17;93.58496;101094.2;;;;-78
2023/08/27 19:23:15;;;;;;;;;;;;;;;14.1;93.79297;101100.1;;;;-79
2023/08/27 19:28:15;;;;;;;;;;;;;;;14.03;93.88867;101101.5;;;;-78
2023/08/27 19:33:15;;;;;;;;;;;;;;;13.95;94.02734;101101.7;;;;-79
2023/08/27 19:38:15;;;;;;;;;;;;;;;13.87;94.05566;101109.4;;;;-79
2023/08/27 19:39:18;;;;;;;5.7;2.7;;;;;;;;;;;;;-79
2023/08/27 19:43:15;;;;;;;;;;;;;;;13.83;93.91309;101109.7;;;;-77
2023/08/27 19:48:15;;;;;;;;;;;;;;;13.75;95.12793;101112.8;;;;-78
2023/08/27 19:53:15;;;;;;;;;;;;;;;13.67;96.07715;101108.7;;;;-80
2023/08/27 19:58:15;;;;;;;;;;;;;;;13.62;96.10938;101109.5;;;;-80
2023/08/27 20:03:15;;;;;;;;;;;;;;;13.59;95.69336;101109.2;;;;-79
2023/08/27 20:08:15;;;;;;;;;;;;;;;13.5;96.41602;101108;;;;-80
2023/08/27 20:09:20;;;;;;;13.6;6.1;;;;;;;;;;;;;-79
2023/08/27 20:13:17;;;;;;;;;;;;;;;13.43;96.65527;101111.4;;;;-80
2023/08/27 20:18:15;;;;;;;;;;;;;;;13.38;98.17383;101114.5;;;;-79
2023/08/27 20:23:15;;;;;;;;;;;;;;;13.37;99.14648;101117.4;;;;-79
2023/08/27 20:28:16;;;;;;;;;;;;;;;13.36;98.96777;101117;;;;-79
2023/08/27 20:33:15;;;;;;;;;;;;;;;13.35;98.70898;101121.4;;;;-81
2023/08/27 20:38:15;;;;;;;;;;;;;;;13.31;98.98828;101125.3;;;;-78
2023/08/27 20:39:23;;;;;;;7.2;4.1;;;;;;;;;;;;;-80
2023/08/27 20:43:15;;;;;;;;;;;;;;;13.28;99.03613;101128.5;;;;-78
2023/08/27 20:48:16;;;;;;;;;;;;;;;13.18;99.73438;101135.9;;;;-80
2023/08/27 20:53:15;;;;;;;;;;;;;;;13.09;100;101138.5;;;;-79
2023/08/27 20:58:15;;;;;;;;;;;;;;;13.01;100;101136.8;;;;-78
2023/08/27 21:03:15;;;;;;;;;;;;;;;12.98;100;101143.9;;;;-79
2023/08/27 21:08:15;;;;;;;;;;;;;;;12.99;100;101145;;;;-77
2023/08/27 21:09:25;;;;;;;8.7;4.2;;;;;;;;;;;;;-80
2023/08/27 21:13:15;;;;;;;;;;;;;;;12.96;100;101144.5;;;;-79
2023/08/27 21:18:15;;;;;;;;;;;;;;;12.92;100;101148.8;;;;-80
2023/08/27 21:23:15;;;;;;;;;;;;;;;12.86;100;101153;;;;-77
2023/08/27 21:28:17;;;;;;;;;;;;;;;12.89;100;101162.5;;;;-79
2023/08/27 21:33:15;;;;;;;;;;;;;;;12.95;100;101159.7;;;;-77
2023/08/27 21:38:15;;;;;;;;;;;;;;;12.96;100;101168.3;;;;-78
2023/08/27 21:39:27;;;;;;;6.8;3.3;;;;;;;;;;;;;-79
2023/08/27 21:43:15;;;;;;;;;;;;;;;12.96;100;101169.1;;;;-79
2023/08/27 21:48:15;;;;;;;;;;;;;;;12.86;100;101176.3;;;;-79
2023/08/27 21:53:15;;;;;;;;;;;;;;;12.76;100;101181.9;;;;-79
2023/08/27 21:58:15;;;;;;;;;;;;;;;12.63;100;101182.6;;;;-79
2023/08/27 22:03:16;;;;;;;;;;;;;;;12.54;100;101183.2;;;;-79
2023/08/27 22:08:15;;;;;;;;;;;;;;;12.45;100;101191;;;;-79
2023/08/27 22:09:29;;;;;;;9;3.9;;;;;;;;;;;;;-79
2023/08/27 22:13:16;;;;;;;;;;;;;;;12.37;100;101194.1;;;;-80
2023/08/27 22:18:15;;;;;;;;;;;;;;;12.34;100;101197.5;;;;-80
2023/08/27 22:23:15;;;;;;;;;;;;;;;12.35;100;101195;;;;-79
2023/08/27 22:28:15;;;;;;;;;;;;;;;12.32;100;101201.2;;;;-77
2023/08/27 22:33:15;;;;;;;;;;;;;;;12.24;100;101205.6;;;;-79
2023/08/27 22:38:15;;;;;;;;;;;;;;;12.19;100;101204.4;;;;-79
2023/08/27 22:39:30;;;;;;;7.4;3.8;;;;;;;;;;;;;-78
2023/08/27 22:43:15;;;;;;;;;;;;;;;12.22;100;101211;;;;-81
2023/08/27 22:48:15;;;;;;;;;;;;;;;12.21;100;101208;;;;-80
2023/08/27 22:53:15;;;;;;;;;;;;;;;12.25;100;101209.8;;;;-79
2023/08/27 22:58:15;;;;;;;;;;;;;;;12.24;100;101215;;;;-79
2023/08/27 23:03:15;;;;;;;;;;;;;;;12.19;100;101218.1;;;;-78
2023/08/27 23:08:15;;;;;;;;;;;;;;;12.17;100;101223.3;;;;-79
2023/08/27 23:09:33;;;;;;;6.5;2.7;;;;;;;;;;;;;-79
2023/08/27 23:13:16;;;;;;;;;;;;;;;12.18;100;101224.3;;;;-79
2023/08/27 23:18:15;;;;;;;;;;;;;;;12.25;100;101229.1;;;;-79
2023/08/27 23:23:15;;;;;;;;;;;;;;;12.25;100;101220;;;;-79
2023/08/27 23:28:15;;;;;;;;;;;;;;;12.23;100;101215.6;;;;-79
2023/08/27 23:33:16;;;;;;;;;;;;;;;12.16;100;101208.5;;;;-78
2023/08/27 23:38:15;;;;;;;;;;;;;;;12.11;100;101207.7;;;;-79
2023/08/27 23:39:37;;;;;;;5.6;2.8;;;;;;;;;;;;;-79
2023/08/27 23:43:15;;;;;;;;;;;;;;;12.01;100;101199.4;;;;-79
2023/08/27 23:48:15;;;;;;;;;;;;;;;11.92;100;101202;;;;-79
2023/08/27 23:53:16;;;;;;;;;;;;;;;11.87;100;101205.9;;;;-78
2023/08/27 23:58:15;;;;;;;;;;;;;;;11.77;100;101196.8;;;;-79
